createdAt,value
2019-05-26T00:02:52.101Z,6.70
2019-05-26T00:07:59.579Z,6.20
2019-05-26T00:13:06.620Z,6.35
2019-05-26T00:18:15.883Z,6.33
2019-05-26T00:23:27.414Z,7.08
2019-05-26T00:28:34.611Z,5.97
2019-05-26T00:33:41.917Z,6.47
2019-05-26T00:38:48.712Z,9.80
2019-05-26T00:43:55.559Z,6.55
2019-05-26T00:49:02.574Z,6.58
2019-05-26T00:54:09.450Z,7.12
2019-05-26T00:59:16.453Z,7.37
2019-05-26T01:04:23.456Z,6.42
2019-05-26T01:09:30.563Z,6.90
2019-05-26T01:14:39.646Z,6.90
2019-05-26T01:25:18.632Z,7.17
2019-05-26T01:30:39.255Z,7.67
2019-05-26T01:40:54.443Z,7.67
2019-05-26T01:51:07.414Z,7.85
2019-05-26T02:01:20.608Z,8.30
2019-05-26T02:06:28.259Z,7.70
2019-05-26T02:11:42.344Z,7.95
2019-05-26T02:16:50.445Z,7.95
2019-05-26T02:21:59.534Z,7.78
2019-05-26T02:32:41.389Z,8.83
2019-05-26T02:37:54.238Z,8.03
2019-05-26T02:43:01.896Z,9.60
2019-05-26T02:48:08.702Z,8.10
2019-05-26T02:53:24.575Z,7.30
2019-05-26T02:58:37.435Z,7.72
2019-05-26T03:03:45.417Z,7.42
2019-05-26T03:08:54.871Z,7.85
2019-05-26T03:14:07.297Z,8.30
2019-05-26T03:19:20.282Z,9.20
2019-05-26T03:24:33.457Z,9.30
2019-05-26T03:29:40.564Z,8.70
2019-05-26T03:34:48.262Z,8.23
2019-05-26T03:40:01.012Z,8.25
2019-05-26T03:45:09.365Z,8.25
2019-05-26T03:50:19.547Z,8.18
2019-05-26T03:55:29.716Z,8.70
2019-05-26T04:00:39.612Z,8.80
2019-05-26T04:05:48.334Z,7.78
2019-05-26T04:10:55.533Z,9.25
2019-05-26T04:16:02.606Z,7.85
2019-05-26T04:21:10.592Z,8.30
2019-05-26T04:26:17.572Z,10.40
2019-05-26T04:31:24.581Z,8.00
2019-05-26T04:36:33.505Z,8.78
2019-05-26T04:41:45.965Z,8.23
2019-05-26T04:46:59.034Z,8.23
2019-05-26T04:52:13.325Z,8.65
2019-05-26T04:57:20.411Z,8.70
2019-05-26T05:02:27.718Z,8.45
2019-05-26T05:07:34.589Z,8.78
2019-05-26T05:12:41.706Z,9.35
2019-05-26T05:17:48.584Z,9.20
2019-05-26T05:22:55.526Z,8.95
2019-05-26T05:28:02.560Z,9.38
2019-05-26T05:34:10.581Z,9.50
2019-05-26T05:39:17.428Z,9.48
2019-05-26T05:44:24.432Z,10.00
2019-05-26T05:49:31.473Z,10.48
2019-05-26T05:54:39.422Z,10.93
2019-05-26T05:59:47.595Z,10.10
2019-05-26T06:04:54.565Z,5.67
2019-05-26T06:10:01.444Z,10.00
2019-05-26T06:15:11.018Z,10.50
2019-05-26T06:20:19.058Z,9.40
2019-05-26T06:25:26.433Z,10.25
2019-05-26T06:30:35.029Z,9.02
2019-05-26T06:35:42.413Z,8.37
2019-05-26T06:40:49.509Z,8.23
2019-05-26T06:45:56.580Z,7.20
2019-05-26T06:51:03.516Z,6.62
2019-05-26T06:56:10.552Z,6.65
2019-05-26T07:01:17.692Z,5.33
2019-05-26T07:06:24.449Z,5.45
2019-05-26T07:11:31.789Z,5.07
2019-05-26T07:16:39.117Z,5.08
2019-05-26T07:21:47.592Z,4.60
2019-05-26T07:26:55.579Z,4.50
2019-05-26T07:32:02.508Z,4.95
2019-05-26T07:37:09.576Z,4.72
2019-05-26T07:42:16.555Z,3.65
2019-05-26T07:47:23.574Z,3.37
2019-05-26T07:52:31.450Z,3.47
2019-05-26T07:57:39.032Z,2.70
2019-05-26T08:02:46.436Z,2.90
2019-05-26T08:07:53.539Z,3.10
2019-05-26T08:13:00.435Z,3.25
2019-05-26T08:18:08.552Z,2.92
2019-05-26T08:23:15.670Z,2.83
2019-05-26T08:28:22.594Z,2.83
2019-05-26T08:33:29.865Z,3.22
2019-05-26T08:38:36.579Z,3.08
2019-05-26T08:43:43.456Z,2.67
2019-05-26T08:48:50.443Z,2.60
2019-05-26T08:53:57.571Z,2.40
2019-05-26T08:59:04.442Z,2.60
2019-05-26T09:04:11.431Z,2.52
2019-05-26T09:09:18.526Z,2.98
2019-05-26T09:14:25.650Z,2.90
2019-05-26T09:19:32.585Z,2.50
2019-05-26T09:24:39.505Z,3.47
2019-05-26T09:29:46.476Z,2.62
2019-05-26T09:34:53.467Z,2.58
2019-05-26T09:40:00.591Z,2.60
2019-05-26T09:45:10.940Z,2.55
2019-05-26T09:50:19.609Z,2.55
2019-05-26T09:55:26.592Z,2.40
2019-05-26T10:00:35.405Z,2.42
2019-05-26T10:05:45.057Z,2.43
2019-05-26T10:10:52.241Z,2.47
2019-05-26T10:15:59.615Z,2.58
2019-05-26T10:21:08.879Z,2.72
2019-05-26T10:26:15.446Z,2.10
2019-05-26T10:31:22.553Z,2.27
2019-05-26T10:36:29.647Z,3.15
2019-05-26T10:41:37.652Z,3.08
2019-05-26T10:46:44.633Z,2.87
2019-05-26T10:51:51.556Z,2.90
2019-05-26T10:56:58.441Z,2.95
2019-05-26T11:02:05.569Z,3.45
2019-05-26T11:07:12.444Z,3.20
2019-05-26T11:12:19.457Z,2.77
2019-05-26T11:17:26.473Z,3.17
2019-05-26T11:22:33.583Z,3.52
2019-05-26T11:27:40.459Z,3.05
2019-05-26T11:32:47.579Z,3.60
2019-05-26T11:37:54.477Z,3.27
2019-05-26T11:43:14.061Z,2.83
2019-05-26T11:48:10.423Z,2.50
2019-05-26T11:53:17.424Z,2.50
2019-05-26T11:58:24.431Z,2.85
2019-05-26T12:03:31.563Z,2.58
2019-05-26T12:08:38.577Z,2.60
2019-05-26T12:13:46.473Z,3.00
2019-05-26T12:18:53.551Z,2.60
2019-05-26T12:24:00.453Z,2.77
2019-05-26T12:29:07.566Z,2.90
2019-05-26T12:34:14.590Z,3.12
2019-05-26T12:39:21.569Z,5.25
2019-05-26T12:44:28.599Z,2.30
2019-05-26T12:49:35.572Z,2.47
2019-05-26T12:54:42.586Z,3.27
2019-05-26T12:59:49.552Z,2.85
2019-05-26T13:04:56.568Z,2.67
2019-05-26T13:10:03.558Z,2.67
2019-05-26T13:15:12.114Z,3.02
2019-05-26T13:20:19.934Z,2.50
2019-05-26T13:25:27.135Z,2.42
2019-05-26T13:30:35.571Z,2.74
2019-05-26T13:35:42.583Z,2.60
2019-05-26T13:40:49.474Z,2.55
2019-05-26T13:45:56.574Z,2.80
2019-05-26T13:51:03.583Z,2.65
2019-05-26T13:56:10.591Z,2.62
2019-05-26T14:01:17.575Z,3.00
2019-05-26T14:06:25.597Z,2.67
2019-05-26T14:11:32.620Z,2.05
2019-05-26T14:16:40.251Z,1.80
2019-05-26T14:21:47.448Z,2.10
2019-05-26T14:26:54.567Z,1.87
2019-05-26T14:32:01.571Z,2.00
2019-05-26T14:37:08.578Z,3.08
2019-05-26T14:42:18.338Z,2.20
2019-05-26T14:47:24.506Z,1.62
2019-05-26T14:52:31.645Z,1.87
2019-05-26T14:57:39.606Z,1.62
2019-05-26T15:03:08.626Z,1.87
2019-05-26T15:08:15.576Z,2.08
2019-05-26T15:13:22.602Z,2.27
2019-05-26T15:18:29.612Z,1.57
2019-05-26T15:23:36.487Z,1.80
2019-05-26T15:28:43.472Z,1.77
2019-05-26T15:33:50.575Z,1.62
2019-05-26T15:38:57.602Z,1.72
2019-05-26T15:44:04.590Z,1.90
2019-05-26T15:49:11.584Z,1.82
2019-05-26T15:54:18.574Z,1.80
2019-05-26T15:59:25.568Z,1.98
2019-05-26T16:04:32.461Z,1.92
2019-05-26T16:09:39.494Z,1.95
2019-05-26T16:14:46.607Z,1.98
2019-05-26T16:19:53.606Z,2.00
2019-05-26T16:25:00.595Z,2.10
2019-05-26T16:30:08.926Z,2.10
2019-05-26T16:35:16.494Z,2.42
2019-05-26T16:45:56.747Z,1.85
2019-05-26T16:51:03.602Z,2.20
2019-05-26T16:56:10.579Z,2.12
2019-05-26T17:01:17.554Z,2.55
2019-05-26T17:06:24.566Z,1.75
2019-05-26T17:11:31.577Z,1.70
2019-05-26T17:16:39.029Z,1.82
2019-05-26T17:21:46.617Z,7.22
2019-05-26T17:26:53.475Z,1.92
2019-05-26T17:32:00.561Z,1.50
2019-05-26T17:37:07.505Z,1.72
2019-05-26T17:42:14.557Z,1.60
2019-05-26T17:47:29.786Z,1.98
2019-05-26T17:52:30.509Z,1.70
2019-05-26T17:57:37.475Z,1.90
2019-05-26T18:02:44.575Z,2.08
2019-05-26T18:07:51.570Z,2.02
2019-05-26T18:12:58.453Z,1.98
2019-05-26T18:18:05.471Z,1.70
2019-05-26T18:24:58.352Z,1.97
2019-05-26T18:30:04.699Z,2.30
2019-05-26T18:35:12.258Z,2.40
2019-05-26T18:40:20.056Z,6.17
2019-05-26T18:45:27.421Z,2.30
2019-05-26T18:50:35.550Z,2.88
2019-05-26T18:55:42.571Z,2.27
2019-05-26T19:00:49.680Z,2.20
2019-05-26T19:05:56.625Z,1.85
2019-05-26T19:11:04.591Z,3.65
2019-05-26T19:16:11.483Z,2.00
2019-05-26T19:21:18.614Z,1.70
2019-05-26T19:26:25.610Z,1.98
2019-05-26T19:31:32.470Z,2.00
2019-05-26T19:36:39.464Z,2.42
2019-05-26T19:41:46.508Z,2.00
2019-05-26T19:46:53.479Z,1.90
2019-05-26T19:52:00.481Z,1.92
2019-05-26T19:57:07.590Z,2.45
2019-05-26T20:02:18.626Z,2.00
2019-05-26T20:07:23.592Z,2.02
2019-05-26T20:12:30.463Z,5.65
2019-05-26T20:17:37.478Z,2.65
2019-05-26T20:22:44.570Z,3.25
2019-05-26T20:27:51.488Z,3.58
2019-05-26T20:32:58.593Z,2.37
2019-05-26T20:38:05.587Z,2.85
2019-05-26T20:43:12.463Z,2.72
2019-05-26T20:48:19.459Z,2.77
2019-05-26T20:53:26.448Z,3.30
2019-05-26T20:58:33.434Z,2.92
2019-05-26T21:03:40.544Z,2.47
2019-05-26T21:08:47.570Z,2.17
2019-05-26T21:13:54.500Z,2.15
2019-05-26T21:19:01.466Z,2.30
2019-05-26T21:24:08.463Z,2.20
2019-05-26T21:29:15.534Z,2.20
2019-05-26T21:34:27.083Z,2.92
2019-05-26T21:39:34.572Z,2.30
2019-05-26T21:44:41.476Z,3.40
2019-05-26T21:49:48.435Z,4.30
2019-05-26T21:54:55.447Z,6.35
2019-05-26T22:00:04.244Z,3.30
2019-05-26T22:05:13.435Z,2.52
2019-05-26T22:10:20.612Z,2.72
2019-05-26T22:15:27.600Z,2.92
2019-05-26T22:20:36.446Z,3.00
2019-05-26T22:25:43.465Z,3.00
2019-05-26T22:30:51.740Z,18.17
2019-05-26T22:35:58.663Z,8.00
2019-05-26T22:41:05.460Z,4.58
2019-05-26T22:46:12.459Z,4.05
2019-05-26T22:54:27.567Z,3.30
2019-05-26T22:59:34.467Z,3.12
2019-05-26T23:04:41.580Z,3.58
2019-05-26T23:09:48.580Z,6.67
2019-05-26T23:16:02.600Z,4.75
2019-05-26T23:33:54.595Z,4.45
2019-05-26T23:41:05.628Z,9.10
2019-05-26T23:46:12.473Z,8.08
2019-05-26T23:51:19.545Z,4.53
2019-05-26T23:56:26.570Z,3.45
